createdAt,value
2023-08-30T00:04:16.799Z,46.6
2023-08-30T00:09:37.872Z,46.5
2023-08-30T00:15:13.997Z,46.5
2023-08-30T00:20:34.044Z,46.5
2023-08-30T00:25:54.523Z,46.4
2023-08-30T00:31:16.269Z,46.4
2023-08-30T00:36:37.279Z,46.4
2023-08-30T00:41:58.541Z,46.4
2023-08-30T00:47:03.877Z,46.4
2023-08-30T00:52:41.177Z,46.4
2023-08-30T00:58:21.232Z,46.3
2023-08-30T01:03:57.551Z,46.3
2023-08-30T01:09:18.195Z,46.3
2023-08-30T01:14:39.490Z,46.3
2023-08-30T01:20:15.716Z,46.3
2023-08-30T01:25:51.969Z,46.3
2023-08-30T01:31:28.160Z,46.2
2023-08-30T01:37:20.078Z,46.2
2023-08-30T01:42:55.512Z,46.1
2023-08-30T01:48:47.517Z,46.1
2023-08-30T01:54:38.904Z,46.1
2023-08-30T02:00:14.427Z,46.1
2023-08-30T02:06:06.399Z,46.1
2023-08-30T02:11:57.787Z,46
2023-08-30T02:17:35.679Z,46
2023-08-30T02:23:31.699Z,46
2023-08-30T02:29:08.006Z,45.9
2023-08-30T02:34:44.205Z,45.9
2023-08-30T02:40:05.635Z,45.9
2023-08-30T02:45:44.627Z,45.9
2023-08-30T02:51:20.621Z,45.9
2023-08-30T02:57:12.406Z,45.8
2023-08-30T03:03:04.526Z,45.8
2023-08-30T03:08:58.041Z,45.8
2023-08-30T03:14:49.819Z,45.8
2023-08-30T03:20:41.776Z,45.8
2023-08-30T03:26:32.846Z,45.7
2023-08-30T03:32:25.434Z,45.7
2023-08-30T03:38:17.102Z,45.7
2023-08-30T03:43:37.551Z,45.6
2023-08-30T03:48:59.924Z,45.6
2023-08-30T03:54:20.889Z,45.6
2023-08-30T03:59:44.532Z,45.6
2023-08-30T04:05:21.942Z,45.6
2023-08-30T04:10:43.409Z,45.6
2023-08-30T04:16:21.499Z,45.5
2023-08-30T04:22:01.519Z,45.4
2023-08-30T04:27:07.851Z,45.4
2023-08-30T04:32:29.218Z,45.4
2023-08-30T04:38:21.552Z,45.3
2023-08-30T04:44:24.007Z,45.3
2023-08-30T04:50:18.366Z,45.3
2023-08-30T04:56:10.936Z,45.3
2023-08-30T05:02:03.077Z,45.3
2023-08-30T05:07:54.823Z,45.2
2023-08-30T05:13:47.343Z,45.2
2023-08-30T05:19:26.598Z,45.1
2023-08-30T05:25:19.854Z,45.1
2023-08-30T05:31:11.803Z,45.1
2023-08-30T05:37:03.888Z,45.1
2023-08-30T05:42:56.374Z,45.1
2023-08-30T05:48:48.295Z,45
2023-08-30T05:54:39.767Z,45
2023-08-30T06:00:31.235Z,45
2023-08-30T06:06:25.617Z,44.9
2023-08-30T06:12:16.671Z,44.9
2023-08-30T06:18:06.764Z,44.9
2023-08-30T06:23:58.969Z,44.9
2023-08-30T06:30:04.238Z,44.9
2023-08-30T06:35:40.377Z,44.8
2023-08-30T06:41:35.091Z,44.8
2023-08-30T06:47:26.049Z,44.8
2023-08-30T06:53:03.316Z,44.8
2023-08-30T06:58:40.467Z,44.7
2023-08-30T07:04:16.162Z,44.7
2023-08-30T07:09:55.129Z,44.6
2023-08-30T07:15:46.533Z,44.6
2023-08-30T07:21:34.062Z,44.6
2023-08-30T07:27:10.327Z,44.6
2023-08-30T07:32:49.513Z,44.6
2023-08-30T07:38:59.323Z,44.6
2023-08-30T07:44:55.687Z,44.5
2023-08-30T07:50:47.609Z,44.5
2023-08-30T07:56:56.743Z,44.4
2023-08-30T08:02:48.771Z,44.4
2023-08-30T08:08:53.711Z,44.4
2023-08-30T08:14:45.450Z,44.4
2023-08-30T08:20:22.779Z,44.4
2023-08-30T08:26:17.304Z,44.3
2023-08-30T08:32:08.666Z,44.5
2023-08-30T08:38:00.369Z,44.9
2023-08-30T08:44:06.140Z,45.6
2023-08-30T08:49:56.704Z,46.1
2023-08-30T08:55:57.003Z,46.8
2023-08-30T09:02:07.264Z,47.3
2023-08-30T09:08:00.915Z,47.9
2023-08-30T09:14:03.552Z,48.5
2023-08-30T09:20:09.825Z,49.1
2023-08-30T09:26:01.347Z,49.7
2023-08-30T09:32:06.873Z,50.3
2023-08-30T09:37:59.264Z,50.9
2023-08-30T09:44:13.465Z,51.6
2023-08-30T09:50:17.781Z,52.2
2023-08-30T10:33:28.421Z,52.8
2023-08-30T10:39:20.015Z,56.4
2023-08-30T10:45:30.775Z,56.4
2023-08-30T10:51:23.437Z,56.4
2023-08-30T10:57:15.758Z,56.4
2023-08-30T11:03:08.498Z,56.4
2023-08-30T11:09:01.558Z,56.7
2023-08-30T11:14:54.101Z,57.1
2023-08-30T11:20:45.472Z,57.5
2023-08-30T11:26:22.914Z,57.8
2023-08-30T11:32:00.093Z,58.1
2023-08-30T11:37:35.304Z,58.4
2023-08-30T11:43:08.525Z,58.8
2023-08-30T11:48:47.671Z,59.1
2023-08-30T11:54:30.590Z,59.4
2023-08-30T12:00:05.934Z,59.8
2023-08-30T12:05:59.131Z,60.1
2023-08-30T12:11:50.685Z,60.3
2023-08-30T12:17:26.867Z,60.7
2023-08-30T12:23:04.756Z,60.9
2023-08-30T12:28:55.291Z,61.1
2023-08-30T12:34:31.186Z,61.3
2023-08-30T12:40:11.325Z,61.4
2023-08-30T12:45:47.354Z,61.6
2023-08-30T12:51:23.670Z,61.7
2023-08-30T12:57:16.339Z,61.8
2023-08-30T13:02:53.713Z,61.9
2023-08-30T13:08:46.001Z,61.9
2023-08-30T13:14:23.020Z,62
2023-08-30T13:19:59.023Z,62.1
2023-08-30T13:25:29.049Z,62.1
2023-08-30T13:31:06.575Z,62.1
2023-08-30T13:36:43.134Z,62.1
2023-08-30T13:42:19.259Z,62.1
2023-08-30T13:48:01.279Z,62.1
2023-08-30T13:53:37.285Z,62
2023-08-30T13:59:13.420Z,62
2023-08-30T14:05:06.725Z,62
2023-08-30T14:10:45.005Z,62
2023-08-30T14:16:39.136Z,61.9
2023-08-30T14:22:16.647Z,61.9
2023-08-30T14:28:10.927Z,61.9
2023-08-30T14:34:04.609Z,61.9
2023-08-30T14:39:57.761Z,61.8
2023-08-30T14:45:34.153Z,61.8
2023-08-30T14:51:43.692Z,61.8
2023-08-30T14:57:37.762Z,61.7
2023-08-30T15:03:32.451Z,61.6
2023-08-30T15:09:24.488Z,61.6
2023-08-30T15:15:18.773Z,61.6
2023-08-30T15:21:11.418Z,61.6
2023-08-30T15:27:03.230Z,61.6
2023-08-30T15:32:56.125Z,61.4
2023-08-30T15:38:33.669Z,61.4
2023-08-30T15:44:24.947Z,61.4
2023-08-30T15:50:02.337Z,61.3
2023-08-30T15:56:06.621Z,61.3
2023-08-30T16:01:57.997Z,61.3
2023-08-30T16:07:53.963Z,61.3
2023-08-30T16:13:45.528Z,61.2
2023-08-30T16:19:37.083Z,61.2
2023-08-30T16:25:30.358Z,61.1
2023-08-30T16:31:21.782Z,61.1
2023-08-30T16:37:14.313Z,61
2023-08-30T16:43:10.334Z,61
2023-08-30T16:49:25.930Z,61
2023-08-30T16:55:17.247Z,60.9
2023-08-30T17:01:12.190Z,60.9
2023-08-30T17:07:04.620Z,60.8
2023-08-30T17:12:56.371Z,60.8
2023-08-30T17:18:52.552Z,60.8
2023-08-30T17:24:13.018Z,60.8
2023-08-30T17:29:48.736Z,60.7
2023-08-30T17:35:41.735Z,60.7
2023-08-30T17:41:39.491Z,60.6
2023-08-30T17:47:22.447Z,60.6
2023-08-30T17:53:00.265Z,60.6
2023-08-30T17:58:51.244Z,60.5
2023-08-30T18:04:43.797Z,60.5
2023-08-30T18:10:23.479Z,60.4
2023-08-30T18:16:14.879Z,60.4
2023-08-30T18:21:51.203Z,60.4
2023-08-30T18:27:13.895Z,60.3
2023-08-30T18:33:06.275Z,60.3
2023-08-30T18:38:58.819Z,60.3
2023-08-30T18:45:02.113Z,60.2
2023-08-30T18:50:39.637Z,60.1
2023-08-30T18:56:33.305Z,60.1
2023-08-30T19:01:58.240Z,60.1
2023-08-30T19:07:36.023Z,60
2023-08-30T19:13:30.108Z,59.9
2023-08-30T19:19:25.100Z,59.9
2023-08-30T19:25:03.003Z,59.9
2023-08-30T19:30:40.717Z,59.8
2023-08-30T19:36:35.350Z,59.8
2023-08-30T19:42:27.602Z,59.8
2023-08-30T19:48:21.223Z,59.8
2023-08-30T19:54:14.481Z,59.7
2023-08-30T20:00:07.829Z,59.6
2023-08-30T20:06:03.658Z,59.6
2023-08-30T20:11:56.220Z,59.6
2023-08-30T20:17:48.164Z,59.6
2023-08-30T20:23:42.679Z,59.5
2023-08-30T20:29:21.697Z,59.4
2023-08-30T20:34:58.191Z,59.4
2023-08-30T20:40:57.670Z,59.4
2023-08-30T20:47:00.565Z,59.3
2023-08-30T20:52:21.789Z,59.3
2023-08-30T20:58:29.359Z,59.3
2023-08-30T21:04:23.667Z,59.3
2023-08-30T21:10:14.768Z,59.2
2023-08-30T21:16:13.586Z,59.1
2023-08-30T21:21:35.411Z,59.1
2023-08-30T21:27:28.127Z,59.1
2023-08-30T21:33:20.546Z,59
2023-08-30T21:39:14.156Z,58.9
2023-08-30T21:45:07.182Z,58.9
2023-08-30T21:50:59.116Z,58.9
2023-08-30T21:56:51.763Z,58.9
2023-08-30T22:02:43.212Z,58.8
2023-08-30T22:08:36.049Z,58.8
2023-08-30T22:14:30.839Z,58.8
2023-08-30T22:20:25.007Z,58.7
2023-08-30T22:26:01.420Z,58.6
2023-08-30T22:31:53.596Z,58.6
2023-08-30T22:37:47.059Z,58.6
2023-08-30T22:49:16.141Z,58.5
2023-08-30T22:55:17.657Z,58.5
2023-08-30T23:01:09.419Z,58.4
2023-08-30T23:06:47.682Z,58.4
2023-08-30T23:12:39.172Z,58.4
2023-08-30T23:18:16.036Z,58.3
2023-08-30T23:24:08.137Z,58.3
2023-08-30T23:29:43.555Z,58.3
2023-08-30T23:35:35.037Z,58.3
2023-08-30T23:41:30.313Z,58.2
2023-08-30T23:47:22.999Z,58.1
2023-08-30T23:53:00.020Z,58.1
2023-08-30T23:58:36.330Z,58.1
